sensor_id;sensor_type;location;lat;lon;timestamp;P1;durP1;ratioP1;P2;durP2;ratioP2
46230;SDS011;31949;51.404;-0.038;2023-03-14T00:00:13;22.85;;;6.07;;
46230;SDS011;31949;51.404;-0.038;2023-03-14T00:02:41;20.67;;;4.97;;
46230;SDS011;31949;51.404;-0.038;2023-03-14T00:05:08;31.92;;;6.13;;
46230;SDS011;31949;51.404;-0.038;2023-03-14T00:07:37;26.75;;;5.40;;
46230;SDS011;31949;51.404;-0.038;2023-03-14T00:10:07;25.90;;;6.13;;
46230;SDS011;31949;51.404;-0.038;2023-03-14T00:12:36;26.55;;;6.32;;
46230;SDS011;31949;51.404;-0.038;2023-03-14T00:15:04;21.60;;;4.75;;
46230;SDS011;31949;51.404;-0.038;2023-03-14T00:17:34;21.63;;;5.32;;
46230;SDS011;31949;51.404;-0.038;2023-03-14T00:20:02;21.42;;;4.68;;
46230;SDS011;31949;51.404;-0.038;2023-03-14T00:22:35;17.35;;;4.45;;
46230;SDS011;31949;51.404;-0.038;2023-03-14T00:25:03;16.42;;;3.85;;
46230;SDS011;31949;51.404;-0.038;2023-03-14T00:27:32;14.25;;;3.38;;
46230;SDS011;31949;51.404;-0.038;2023-03-14T00:29:59;21.05;;;4.32;;
46230;SDS011;31949;51.404;-0.038;2023-03-14T00:32:27;14.32;;;3.63;;
46230;SDS011;31949;51.404;-0.038;2023-03-14T00:34:54;14.07;;;3.38;;
46230;SDS011;31949;51.404;-0.038;2023-03-14T00:37:21;17.17;;;3.00;;
46230;SDS011;31949;51.404;-0.038;2023-03-14T00:39:50;15.35;;;3.25;;
46230;SDS011;31949;51.404;-0.038;2023-03-14T00:42:18;12.88;;;3.75;;
46230;SDS011;31949;51.404;-0.038;2023-03-14T00:44:45;15.10;;;3.60;;
46230;SDS011;31949;51.404;-0.038;2023-03-14T00:47:13;8.65;;;2.22;;
46230;SDS011;31949;51.404;-0.038;2023-03-14T00:49:41;12.85;;;2.83;;
46230;SDS011;31949;51.404;-0.038;2023-03-14T00:52:11;13.18;;;2.97;;
46230;SDS011;31949;51.404;-0.038;2023-03-14T00:54:38;11.45;;;2.25;;
46230;SDS011;31949;51.404;-0.038;2023-03-14T00:57:05;10.93;;;2.60;;
46230;SDS011;31949;51.404;-0.038;2023-03-14T00:59:32;8.75;;;2.90;;
46230;SDS011;31949;51.404;-0.038;2023-03-14T01:01:59;9.73;;;2.38;;
46230;SDS011;31949;51.404;-0.038;2023-03-14T01:04:27;17.65;;;3.97;;
46230;SDS011;31949;51.404;-0.038;2023-03-14T01:06:54;8.60;;;2.72;;
46230;SDS011;31949;51.404;-0.038;2023-03-14T01:09:21;8.57;;;2.33;;
46230;SDS011;31949;51.404;-0.038;2023-03-14T01:11:49;9.88;;;2.90;;
46230;SDS011;31949;51.404;-0.038;2023-03-14T01:14:16;11.50;;;2.88;;
46230;SDS011;31949;51.404;-0.038;2023-03-14T01:16:43;12.43;;;2.78;;
46230;SDS011;31949;51.404;-0.038;2023-03-14T01:19:10;9.57;;;2.28;;
46230;SDS011;31949;51.404;-0.038;2023-03-14T01:21:38;10.65;;;2.55;;
46230;SDS011;31949;51.404;-0.038;2023-03-14T01:24:06;13.60;;;2.92;;
46230;SDS011;31949;51.404;-0.038;2023-03-14T01:26:34;5.15;;;1.38;;
46230;SDS011;31949;51.404;-0.038;2023-03-14T01:29:03;4.93;;;1.08;;
46230;SDS011;31949;51.404;-0.038;2023-03-14T01:31:34;1.75;;;0.82;;
46230;SDS011;31949;51.404;-0.038;2023-03-14T01:34:02;1.58;;;0.77;;
46230;SDS011;31949;51.404;-0.038;2023-03-14T01:36:30;2.78;;;0.60;;
46230;SDS011;31949;51.404;-0.038;2023-03-14T01:38:59;1.30;;;0.70;;
46230;SDS011;31949;51.404;-0.038;2023-03-14T01:41:27;0.40;;;0.30;;
46230;SDS011;31949;51.404;-0.038;2023-03-14T01:43:56;0.43;;;0.40;;
46230;SDS011;31949;51.404;-0.038;2023-03-14T01:51:40;0.60;;;0.40;;
46230;SDS011;31949;51.404;-0.038;2023-03-14T01:56:50;0.80;;;0.32;;
46230;SDS011;31949;51.404;-0.038;2023-03-14T01:59:22;2.15;;;0.43;;
46230;SDS011;31949;51.404;-0.038;2023-03-14T02:01:49;1.25;;;0.50;;
46230;SDS011;31949;51.404;-0.038;2023-03-14T02:04:18;2.28;;;0.40;;
46230;SDS011;31949;51.404;-0.038;2023-03-14T02:06:55;0.95;;;0.60;;
46230;SDS011;31949;51.404;-0.038;2023-03-14T02:09:57;0.95;;;0.55;;
46230;SDS011;31949;51.404;-0.038;2023-03-14T02:12:29;2.85;;;0.60;;
46230;SDS011;31949;51.404;-0.038;2023-03-14T02:15:24;5.10;;;0.70;;
46230;SDS011;31949;51.404;-0.038;2023-03-14T02:17:58;2.50;;;0.75;;
46230;SDS011;31949;51.404;-0.038;2023-03-14T02:21:01;3.25;;;0.80;;
46230;SDS011;31949;51.404;-0.038;2023-03-14T02:23:57;0.82;;;0.73;;
46230;SDS011;31949;51.404;-0.038;2023-03-14T02:26:43;1.67;;;0.73;;
46230;SDS011;31949;51.404;-0.038;2023-03-14T02:29:30;0.80;;;0.75;;
46230;SDS011;31949;51.404;-0.038;2023-03-14T02:32:01;1.13;;;0.90;;
46230;SDS011;31949;51.404;-0.038;2023-03-14T02:34:29;1.88;;;0.80;;
46230;SDS011;31949;51.404;-0.038;2023-03-14T02:36:58;9.48;;;1.67;;
46230;SDS011;31949;51.404;-0.038;2023-03-14T02:39:29;3.38;;;1.10;;
46230;SDS011;31949;51.404;-0.038;2023-03-14T02:42:12;2.50;;;0.85;;
46230;SDS011;31949;51.404;-0.038;2023-03-14T02:47:49;4.07;;;0.98;;
46230;SDS011;31949;51.404;-0.038;2023-03-14T02:50:26;2.15;;;1.15;;
46230;SDS011;31949;51.404;-0.038;2023-03-14T02:52:57;2.03;;;0.60;;
46230;SDS011;31949;51.404;-0.038;2023-03-14T02:55:24;2.90;;;0.65;;
46230;SDS011;31949;51.404;-0.038;2023-03-14T02:57:56;2.35;;;0.60;;
46230;SDS011;31949;51.404;-0.038;2023-03-14T03:00:24;3.08;;;0.63;;
46230;SDS011;31949;51.404;-0.038;2023-03-14T03:02:51;2.22;;;1.33;;
46230;SDS011;31949;51.404;-0.038;2023-03-14T03:05:18;2.83;;;0.55;;
46230;SDS011;31949;51.404;-0.038;2023-03-14T03:07:45;2.45;;;0.50;;
46230;SDS011;31949;51.404;-0.038;2023-03-14T03:10:12;2.25;;;0.70;;
46230;SDS011;31949;51.404;-0.038;2023-03-14T03:12:40;2.83;;;0.70;;
46230;SDS011;31949;51.404;-0.038;2023-03-14T03:15:07;4.47;;;0.80;;
46230;SDS011;31949;51.404;-0.038;2023-03-14T03:17:36;1.15;;;0.50;;
46230;SDS011;31949;51.404;-0.038;2023-03-14T03:20:05;2.08;;;0.60;;
46230;SDS011;31949;51.404;-0.038;2023-03-14T03:22:36;2.13;;;0.47;;
46230;SDS011;31949;51.404;-0.038;2023-03-14T03:25:03;1.77;;;0.70;;
46230;SDS011;31949;51.404;-0.038;2023-03-14T03:27:32;1.95;;;0.63;;
46230;SDS011;31949;51.404;-0.038;2023-03-14T03:30:02;2.40;;;0.43;;
46230;SDS011;31949;51.404;-0.038;2023-03-14T03:32:33;2.75;;;0.68;;
46230;SDS011;31949;51.404;-0.038;2023-03-14T03:35:01;3.13;;;0.60;;
46230;SDS011;31949;51.404;-0.038;2023-03-14T03:37:35;1.13;;;0.45;;
46230;SDS011;31949;51.404;-0.038;2023-03-14T03:40:05;3.00;;;0.50;;
46230;SDS011;31949;51.404;-0.038;2023-03-14T03:42:34;2.92;;;0.75;;
46230;SDS011;31949;51.404;-0.038;2023-03-14T03:45:03;1.70;;;0.55;;
46230;SDS011;31949;51.404;-0.038;2023-03-14T03:47:34;2.83;;;0.93;;
46230;SDS011;31949;51.404;-0.038;2023-03-14T03:50:01;2.33;;;0.60;;
46230;SDS011;31949;51.404;-0.038;2023-03-14T03:52:29;2.25;;;0.68;;
46230;SDS011;31949;51.404;-0.038;2023-03-14T03:54:56;3.85;;;0.70;;
46230;SDS011;31949;51.404;-0.038;2023-03-14T03:57:23;1.70;;;0.38;;
46230;SDS011;31949;51.404;-0.038;2023-03-14T03:59:50;4.40;;;2.05;;
46230;SDS011;31949;51.404;-0.038;2023-03-14T04:02:18;3.70;;;0.57;;
46230;SDS011;31949;51.404;-0.038;2023-03-14T04:04:45;1.05;;;0.50;;
46230;SDS011;31949;51.404;-0.038;2023-03-14T04:07:12;1.98;;;0.43;;
46230;SDS011;31949;51.404;-0.038;2023-03-14T04:09:41;1.58;;;0.40;;
46230;SDS011;31949;51.404;-0.038;2023-03-14T04:12:20;2.88;;;0.60;;
46230;SDS011;31949;51.404;-0.038;2023-03-14T04:14:54;3.17;;;1.00;;
46230;SDS011;31949;51.404;-0.038;2023-03-14T04:17:21;5.55;;;2.35;;
46230;SDS011;31949;51.404;-0.038;2023-03-14T04:19:49;3.95;;;1.00;;
46230;SDS011;31949;51.404;-0.038;2023-03-14T04:22:19;1.77;;;0.60;;
46230;SDS011;31949;51.404;-0.038;2023-03-14T04:24:51;1.80;;;0.80;;
46230;SDS011;31949;51.404;-0.038;2023-03-14T04:27:19;3.50;;;0.70;;
46230;SDS011;31949;51.404;-0.038;2023-03-14T04:29:47;4.47;;;1.02;;
46230;SDS011;31949;51.404;-0.038;2023-03-14T04:32:18;1.33;;;0.50;;
46230;SDS011;31949;51.404;-0.038;2023-03-14T04:34:46;3.45;;;0.65;;
46230;SDS011;31949;51.404;-0.038;2023-03-14T04:37:13;4.30;;;1.55;;
46230;SDS011;31949;51.404;-0.038;2023-03-14T04:39:43;4.47;;;0.95;;
46230;SDS011;31949;51.404;-0.038;2023-03-14T04:42:24;3.15;;;1.05;;
46230;SDS011;31949;51.404;-0.038;2023-03-14T04:44:51;2.30;;;0.60;;
46230;SDS011;31949;51.404;-0.038;2023-03-14T04:47:21;6.43;;;0.77;;
46230;SDS011;31949;51.404;-0.038;2023-03-14T04:49:49;5.80;;;1.50;;
46230;SDS011;31949;51.404;-0.038;2023-03-14T04:52:17;5.70;;;1.38;;
46230;SDS011;31949;51.404;-0.038;2023-03-14T04:54:45;8.32;;;1.10;;
46230;SDS011;31949;51.404;-0.038;2023-03-14T04:57:12;4.93;;;1.02;;
46230;SDS011;31949;51.404;-0.038;2023-03-14T04:59:40;9.10;;;1.95;;
46230;SDS011;31949;51.404;-0.038;2023-03-14T05:02:33;3.60;;;1.23;;
46230;SDS011;31949;51.404;-0.038;2023-03-14T05:05:10;9.25;;;1.35;;
46230;SDS011;31949;51.404;-0.038;2023-03-14T05:07:46;6.63;;;0.90;;
46230;SDS011;31949;51.404;-0.038;2023-03-14T05:10:36;2.50;;;1.00;;
46230;SDS011;31949;51.404;-0.038;2023-03-14T05:13:11;6.13;;;1.45;;
46230;SDS011;31949;51.404;-0.038;2023-03-14T05:16:05;9.60;;;1.63;;
46230;SDS011;31949;51.404;-0.038;2023-03-14T05:18:50;16.10;;;1.98;;
46230;SDS011;31949;51.404;-0.038;2023-03-14T05:21:35;8.75;;;1.23;;
46230;SDS011;31949;51.404;-0.038;2023-03-14T05:24:11;5.35;;;1.95;;
46230;SDS011;31949;51.404;-0.038;2023-03-14T05:26:50;9.20;;;2.03;;
46230;SDS011;31949;51.404;-0.038;2023-03-14T05:29:40;8.00;;;1.40;;
46230;SDS011;31949;51.404;-0.038;2023-03-14T05:32:27;3.10;;;1.17;;
46230;SDS011;31949;51.404;-0.038;2023-03-14T05:35:06;10.07;;;1.63;;
46230;SDS011;31949;51.404;-0.038;2023-03-14T05:37:49;9.82;;;1.23;;
46230;SDS011;31949;51.404;-0.038;2023-03-14T05:40:34;6.25;;;1.75;;
46230;SDS011;31949;51.404;-0.038;2023-03-14T05:43:16;4.53;;;1.13;;
46230;SDS011;31949;51.404;-0.038;2023-03-14T05:46:10;3.72;;;1.30;;
46230;SDS011;31949;51.404;-0.038;2023-03-14T05:48:47;5.35;;;1.27;;
46230;SDS011;31949;51.404;-0.038;2023-03-14T05:51:42;6.68;;;1.50;;
46230;SDS011;31949;51.404;-0.038;2023-03-14T05:54:27;3.80;;;0.98;;
46230;SDS011;31949;51.404;-0.038;2023-03-14T05:57:15;5.20;;;1.30;;
46230;SDS011;31949;51.404;-0.038;2023-03-14T06:00:05;6.07;;;1.23;;
46230;SDS011;31949;51.404;-0.038;2023-03-14T06:02:45;6.05;;;1.33;;
46230;SDS011;31949;51.404;-0.038;2023-03-14T06:05:20;3.67;;;1.23;;
46230;SDS011;31949;51.404;-0.038;2023-03-14T06:07:50;7.18;;;1.27;;
46230;SDS011;31949;51.404;-0.038;2023-03-14T06:10:17;5.88;;;1.30;;
46230;SDS011;31949;51.404;-0.038;2023-03-14T06:12:44;11.77;;;1.58;;
46230;SDS011;31949;51.404;-0.038;2023-03-14T06:15:11;6.60;;;1.30;;
46230;SDS011;31949;51.404;-0.038;2023-03-14T06:17:40;5.07;;;1.33;;
46230;SDS011;31949;51.404;-0.038;2023-03-14T06:20:11;8.48;;;1.20;;
46230;SDS011;31949;51.404;-0.038;2023-03-14T06:22:39;5.28;;;1.30;;
46230;SDS011;31949;51.404;-0.038;2023-03-14T06:25:07;7.65;;;1.20;;
46230;SDS011;31949;51.404;-0.038;2023-03-14T06:27:35;6.57;;;2.53;;
46230;SDS011;31949;51.404;-0.038;2023-03-14T06:30:03;3.65;;;1.30;;
46230;SDS011;31949;51.404;-0.038;2023-03-14T06:32:31;7.68;;;1.50;;
46230;SDS011;31949;51.404;-0.038;2023-03-14T06:35:03;5.47;;;1.02;;
46230;SDS011;31949;51.404;-0.038;2023-03-14T06:37:35;9.48;;;1.02;;
46230;SDS011;31949;51.404;-0.038;2023-03-14T06:40:02;9.68;;;1.25;;
46230;SDS011;31949;51.404;-0.038;2023-03-14T06:42:57;6.70;;;1.10;;
46230;SDS011;31949;51.404;-0.038;2023-03-14T06:45:27;5.97;;;1.13;;
46230;SDS011;31949;51.404;-0.038;2023-03-14T06:47:56;7.47;;;1.63;;
46230;SDS011;31949;51.404;-0.038;2023-03-14T06:50:30;4.82;;;1.38;;
46230;SDS011;31949;51.404;-0.038;2023-03-14T06:52:58;6.65;;;1.20;;
46230;SDS011;31949;51.404;-0.038;2023-03-14T06:55:26;6.70;;;1.40;;
46230;SDS011;31949;51.404;-0.038;2023-03-14T06:57:53;9.82;;;1.70;;
46230;SDS011;31949;51.404;-0.038;2023-03-14T07:00:21;8.52;;;2.97;;
46230;SDS011;31949;51.404;-0.038;2023-03-14T07:02:52;8.60;;;1.85;;
46230;SDS011;31949;51.404;-0.038;2023-03-14T07:05:29;7.00;;;1.02;;
46230;SDS011;31949;51.404;-0.038;2023-03-14T07:07:56;10.02;;;1.17;;
46230;SDS011;31949;51.404;-0.038;2023-03-14T07:10:23;7.20;;;1.85;;
46230;SDS011;31949;51.404;-0.038;2023-03-14T07:12:51;6.18;;;1.23;;
46230;SDS011;31949;51.404;-0.038;2023-03-14T07:15:21;5.28;;;1.15;;
46230;SDS011;31949;51.404;-0.038;2023-03-14T07:17:54;10.82;;;1.70;;
46230;SDS011;31949;51.404;-0.038;2023-03-14T07:20:22;5.47;;;1.38;;
46230;SDS011;31949;51.404;-0.038;2023-03-14T07:22:50;10.05;;;2.65;;
46230;SDS011;31949;51.404;-0.038;2023-03-14T07:25:26;12.05;;;1.70;;
46230;SDS011;31949;51.404;-0.038;2023-03-14T07:27:53;8.15;;;1.27;;
46230;SDS011;31949;51.404;-0.038;2023-03-14T07:30:21;6.05;;;1.38;;
46230;SDS011;31949;51.404;-0.038;2023-03-14T07:32:49;8.85;;;1.50;;
46230;SDS011;31949;51.404;-0.038;2023-03-14T07:35:19;5.95;;;1.50;;
46230;SDS011;31949;51.404;-0.038;2023-03-14T07:37:46;3.95;;;1.20;;
46230;SDS011;31949;51.404;-0.038;2023-03-14T07:40:15;7.57;;;1.63;;
46230;SDS011;31949;51.404;-0.038;2023-03-14T07:42:43;3.40;;;1.17;;
46230;SDS011;31949;51.404;-0.038;2023-03-14T07:45:14;6.30;;;1.77;;
46230;SDS011;31949;51.404;-0.038;2023-03-14T07:47:43;5.13;;;1.25;;
46230;SDS011;31949;51.404;-0.038;2023-03-14T07:50:10;6.45;;;1.77;;
46230;SDS011;31949;51.404;-0.038;2023-03-14T07:52:38;3.85;;;1.10;;
46230;SDS011;31949;51.404;-0.038;2023-03-14T07:55:05;7.57;;;1.45;;
46230;SDS011;31949;51.404;-0.038;2023-03-14T07:57:32;3.58;;;1.42;;
46230;SDS011;31949;51.404;-0.038;2023-03-14T07:59:59;3.47;;;0.98;;
46230;SDS011;31949;51.404;-0.038;2023-03-14T08:02:39;4.65;;;1.20;;
46230;SDS011;31949;51.404;-0.038;2023-03-14T08:05:09;3.17;;;1.00;;
46230;SDS011;31949;51.404;-0.038;2023-03-14T08:07:37;5.50;;;1.23;;
46230;SDS011;31949;51.404;-0.038;2023-03-14T08:10:04;5.70;;;1.02;;
46230;SDS011;31949;51.404;-0.038;2023-03-14T08:12:32;3.55;;;1.00;;
46230;SDS011;31949;51.404;-0.038;2023-03-14T08:14:59;4.28;;;1.20;;
46230;SDS011;31949;51.404;-0.038;2023-03-14T08:17:26;5.65;;;1.10;;
46230;SDS011;31949;51.404;-0.038;2023-03-14T08:19:54;3.97;;;1.40;;
46230;SDS011;31949;51.404;-0.038;2023-03-14T08:22:21;5.30;;;1.02;;
46230;SDS011;31949;51.404;-0.038;2023-03-14T08:24:48;4.47;;;0.63;;
46230;SDS011;31949;51.404;-0.038;2023-03-14T08:27:16;3.08;;;0.90;;
46230;SDS011;31949;51.404;-0.038;2023-03-14T08:29:43;2.75;;;0.52;;
46230;SDS011;31949;51.404;-0.038;2023-03-14T08:32:10;3.67;;;0.60;;
46230;SDS011;31949;51.404;-0.038;2023-03-14T08:34:38;2.55;;;0.77;;
46230;SDS011;31949;51.404;-0.038;2023-03-14T08:37:05;2.17;;;0.60;;
46230;SDS011;31949;51.404;-0.038;2023-03-14T08:39:51;0.68;;;0.55;;
46230;SDS011;31949;51.404;-0.038;2023-03-14T08:42:18;0.88;;;0.55;;
46230;SDS011;31949;51.404;-0.038;2023-03-14T08:44:46;1.10;;;0.55;;
46230;SDS011;31949;51.404;-0.038;2023-03-14T08:47:13;3.50;;;0.93;;
46230;SDS011;31949;51.404;-0.038;2023-03-14T08:49:40;1.50;;;0.70;;
46230;SDS011;31949;51.404;-0.038;2023-03-14T08:52:08;0.68;;;0.60;;
46230;SDS011;31949;51.404;-0.038;2023-03-14T08:54:35;4.35;;;0.70;;
46230;SDS011;31949;51.404;-0.038;2023-03-14T08:57:03;1.00;;;0.65;;
46230;SDS011;31949;51.404;-0.038;2023-03-14T08:59:30;2.08;;;0.88;;
46230;SDS011;31949;51.404;-0.038;2023-03-14T09:01:57;0.95;;;0.80;;
46230;SDS011;31949;51.404;-0.038;2023-03-14T09:04:24;1.20;;;0.70;;
46230;SDS011;31949;51.404;-0.038;2023-03-14T09:06:52;1.60;;;0.60;;
46230;SDS011;31949;51.404;-0.038;2023-03-14T09:09:19;1.08;;;0.60;;
46230;SDS011;31949;51.404;-0.038;2023-03-14T09:11:46;1.20;;;0.80;;
46230;SDS011;31949;51.404;-0.038;2023-03-14T09:14:13;0.93;;;0.50;;
46230;SDS011;31949;51.404;-0.038;2023-03-14T09:16:41;2.03;;;1.23;;
46230;SDS011;31949;51.404;-0.038;2023-03-14T09:19:08;0.60;;;0.50;;
46230;SDS011;31949;51.404;-0.038;2023-03-14T09:21:35;1.05;;;0.70;;
46230;SDS011;31949;51.404;-0.038;2023-03-14T09:24:04;0.65;;;0.55;;
46230;SDS011;31949;51.404;-0.038;2023-03-14T09:26:32;1.17;;;0.60;;
46230;SDS011;31949;51.404;-0.038;2023-03-14T09:28:59;0.68;;;0.38;;
46230;SDS011;31949;51.404;-0.038;2023-03-14T09:31:26;0.85;;;0.20;;
46230;SDS011;31949;51.404;-0.038;2023-03-14T09:33:55;0.95;;;0.40;;
46230;SDS011;31949;51.404;-0.038;2023-03-14T09:36:22;4.63;;;0.50;;
46230;SDS011;31949;51.404;-0.038;2023-03-14T09:38:49;3.15;;;0.90;;
46230;SDS011;31949;51.404;-0.038;2023-03-14T09:43:47;6.70;;;0.80;;
46230;SDS011;31949;51.404;-0.038;2023-03-14T09:46:23;0.68;;;0.52;;
46230;SDS011;31949;51.404;-0.038;2023-03-14T09:48:50;5.78;;;1.40;;
46230;SDS011;31949;51.404;-0.038;2023-03-14T09:51:18;6.35;;;1.45;;
46230;SDS011;31949;51.404;-0.038;2023-03-14T09:53:50;3.65;;;1.63;;
46230;SDS011;31949;51.404;-0.038;2023-03-14T09:56:19;4.90;;;1.27;;
46230;SDS011;31949;51.404;-0.038;2023-03-14T09:58:54;5.32;;;1.70;;
46230;SDS011;31949;51.404;-0.038;2023-03-14T10:01:27;8.68;;;1.85;;
46230;SDS011;31949;51.404;-0.038;2023-03-14T10:04:00;2.25;;;1.10;;
46230;SDS011;31949;51.404;-0.038;2023-03-14T10:06:32;8.43;;;2.60;;
46230;SDS011;31949;51.404;-0.038;2023-03-14T10:09:02;5.53;;;1.40;;
46230;SDS011;31949;51.404;-0.038;2023-03-14T10:11:32;4.35;;;1.48;;
46230;SDS011;31949;51.404;-0.038;2023-03-14T10:14:04;6.22;;;1.63;;
46230;SDS011;31949;51.404;-0.038;2023-03-14T10:16:32;6.30;;;2.00;;
46230;SDS011;31949;51.404;-0.038;2023-03-14T10:19:05;8.63;;;4.20;;
46230;SDS011;31949;51.404;-0.038;2023-03-14T10:21:37;8.52;;;1.92;;
46230;SDS011;31949;51.404;-0.038;2023-03-14T10:24:07;20.17;;;4.60;;
46230;SDS011;31949;51.404;-0.038;2023-03-14T10:26:36;5.90;;;1.65;;
46230;SDS011;31949;51.404;-0.038;2023-03-14T10:29:08;3.88;;;1.80;;
46230;SDS011;31949;51.404;-0.038;2023-03-14T10:34:35;8.45;;;2.10;;
46230;SDS011;31949;51.404;-0.038;2023-03-14T10:37:12;3.80;;;1.25;;
46230;SDS011;31949;51.404;-0.038;2023-03-14T10:44:48;8.05;;;1.58;;
46230;SDS011;31949;51.404;-0.038;2023-03-14T10:47:22;5.88;;;1.50;;
46230;SDS011;31949;51.404;-0.038;2023-03-14T10:49:52;4.80;;;1.30;;
46230;SDS011;31949;51.404;-0.038;2023-03-14T10:52:26;2.97;;;1.30;;
46230;SDS011;31949;51.404;-0.038;2023-03-14T10:55:02;5.00;;;1.23;;
46230;SDS011;31949;51.404;-0.038;2023-03-14T10:57:42;2.67;;;0.93;;
46230;SDS011;31949;51.404;-0.038;2023-03-14T11:00:15;5.40;;;1.08;;
46230;SDS011;31949;51.404;-0.038;2023-03-14T11:03:03;3.80;;;1.55;;
46230;SDS011;31949;51.404;-0.038;2023-03-14T11:10:46;2.28;;;1.33;;
46230;SDS011;31949;51.404;-0.038;2023-03-14T11:24:01;3.30;;;0.98;;
46230;SDS011;31949;51.404;-0.038;2023-03-14T11:26:36;7.15;;;1.25;;
46230;SDS011;31949;51.404;-0.038;2023-03-14T11:31:49;5.70;;;1.20;;
46230;SDS011;31949;51.404;-0.038;2023-03-14T11:34:29;5.03;;;1.67;;
46230;SDS011;31949;51.404;-0.038;2023-03-14T11:37:29;4.05;;;1.48;;
46230;SDS011;31949;51.404;-0.038;2023-03-14T11:40:22;3.85;;;1.65;;
46230;SDS011;31949;51.404;-0.038;2023-03-14T11:42:54;6.32;;;1.77;;
46230;SDS011;31949;51.404;-0.038;2023-03-14T11:45:34;7.25;;;1.50;;
46230;SDS011;31949;51.404;-0.038;2023-03-14T11:50:57;10.85;;;2.55;;
46230;SDS011;31949;51.404;-0.038;2023-03-14T11:56:30;5.30;;;1.50;;
46230;SDS011;31949;51.404;-0.038;2023-03-14T11:59:14;10.70;;;2.35;;
46230;SDS011;31949;51.404;-0.038;2023-03-14T12:04:39;8.18;;;1.65;;
46230;SDS011;31949;51.404;-0.038;2023-03-14T12:07:29;9.20;;;2.58;;
46230;SDS011;31949;51.404;-0.038;2023-03-14T12:10:06;3.05;;;1.02;;
46230;SDS011;31949;51.404;-0.038;2023-03-14T12:12:33;2.33;;;1.33;;
46230;SDS011;31949;51.404;-0.038;2023-03-14T12:15:02;7.38;;;2.15;;
46230;SDS011;31949;51.404;-0.038;2023-03-14T12:17:38;8.02;;;1.63;;
46230;SDS011;31949;51.404;-0.038;2023-03-14T12:20:20;9.48;;;2.00;;
46230;SDS011;31949;51.404;-0.038;2023-03-14T12:22:56;7.28;;;1.77;;
46230;SDS011;31949;51.404;-0.038;2023-03-14T12:25:30;10.02;;;2.15;;
46230;SDS011;31949;51.404;-0.038;2023-03-14T12:30:33;8.85;;;2.75;;
46230;SDS011;31949;51.404;-0.038;2023-03-14T12:35:44;8.70;;;1.80;;
46230;SDS011;31949;51.404;-0.038;2023-03-14T12:43:53;7.53;;;1.70;;
46230;SDS011;31949;51.404;-0.038;2023-03-14T12:46:21;5.22;;;2.10;;
46230;SDS011;31949;51.404;-0.038;2023-03-14T12:54:44;5.97;;;1.77;;
46230;SDS011;31949;51.404;-0.038;2023-03-14T12:56:58;7.47;;;1.77;;
46230;SDS011;31949;51.404;-0.038;2023-03-14T13:02:14;9.30;;;1.15;;
46230;SDS011;31949;51.404;-0.038;2023-03-14T13:04:47;5.53;;;1.70;;
46230;SDS011;31949;51.404;-0.038;2023-03-14T13:13:01;3.65;;;1.10;;
46230;SDS011;31949;51.404;-0.038;2023-03-14T13:15:30;5.55;;;1.48;;
46230;SDS011;31949;51.404;-0.038;2023-03-14T13:18:02;4.60;;;1.13;;
46230;SDS011;31949;51.404;-0.038;2023-03-14T13:20:51;6.28;;;1.10;;
46230;SDS011;31949;51.404;-0.038;2023-03-14T13:23:28;2.92;;;1.13;;
46230;SDS011;31949;51.404;-0.038;2023-03-14T13:26:00;4.53;;;1.10;;
46230;SDS011;31949;51.404;-0.038;2023-03-14T13:28:29;4.70;;;1.15;;
46230;SDS011;31949;51.404;-0.038;2023-03-14T13:31:01;4.55;;;1.23;;
46230;SDS011;31949;51.404;-0.038;2023-03-14T13:33:32;7.15;;;1.05;;
46230;SDS011;31949;51.404;-0.038;2023-03-14T13:36:02;3.40;;;0.90;;
46230;SDS011;31949;51.404;-0.038;2023-03-14T13:38:32;3.60;;;1.00;;
46230;SDS011;31949;51.404;-0.038;2023-03-14T13:41:05;4.05;;;0.98;;
46230;SDS011;31949;51.404;-0.038;2023-03-14T13:43:35;8.63;;;1.10;;
46230;SDS011;31949;51.404;-0.038;2023-03-14T13:46:13;5.35;;;1.33;;
46230;SDS011;31949;51.404;-0.038;2023-03-14T13:48:49;5.93;;;0.93;;
46230;SDS011;31949;51.404;-0.038;2023-03-14T13:51:21;5.82;;;1.25;;
46230;SDS011;31949;51.404;-0.038;2023-03-14T13:53:50;7.97;;;1.70;;
46230;SDS011;31949;51.404;-0.038;2023-03-14T13:56:20;5.43;;;1.40;;
46230;SDS011;31949;51.404;-0.038;2023-03-14T13:58:49;3.65;;;1.10;;
46230;SDS011;31949;51.404;-0.038;2023-03-14T14:03:56;2.50;;;0.95;;
46230;SDS011;31949;51.404;-0.038;2023-03-14T14:06:38;3.40;;;0.80;;
46230;SDS011;31949;51.404;-0.038;2023-03-14T14:09:14;3.75;;;1.05;;
46230;SDS011;31949;51.404;-0.038;2023-03-14T14:20:14;4.63;;;1.30;;
46230;SDS011;31949;51.404;-0.038;2023-03-14T14:22:58;2.78;;;1.05;;
46230;SDS011;31949;51.404;-0.038;2023-03-14T14:25:31;3.65;;;1.10;;
46230;SDS011;31949;51.404;-0.038;2023-03-14T14:28:13;2.22;;;1.20;;
46230;SDS011;31949;51.404;-0.038;2023-03-14T14:36:16;3.33;;;1.42;;
46230;SDS011;31949;51.404;-0.038;2023-03-14T14:39:00;8.23;;;1.50;;
46230;SDS011;31949;51.404;-0.038;2023-03-14T14:41:34;2.50;;;1.20;;
46230;SDS011;31949;51.404;-0.038;2023-03-14T14:44:05;1.98;;;1.00;;
46230;SDS011;31949;51.404;-0.038;2023-03-14T14:46:34;3.75;;;1.10;;
46230;SDS011;31949;51.404;-0.038;2023-03-14T14:49:11;7.63;;;1.02;;
46230;SDS011;31949;51.404;-0.038;2023-03-14T14:51:42;6.25;;;0.80;;
46230;SDS011;31949;51.404;-0.038;2023-03-14T14:54:17;3.83;;;0.90;;
46230;SDS011;31949;51.404;-0.038;2023-03-14T14:56:51;4.65;;;1.30;;
46230;SDS011;31949;51.404;-0.038;2023-03-14T14:59:24;5.63;;;1.08;;
46230;SDS011;31949;51.404;-0.038;2023-03-14T15:01:55;1.90;;;0.88;;
46230;SDS011;31949;51.404;-0.038;2023-03-14T15:04:24;7.35;;;1.85;;
46230;SDS011;31949;51.404;-0.038;2023-03-14T15:06:52;4.68;;;1.90;;
46230;SDS011;31949;51.404;-0.038;2023-03-14T15:09:19;7.45;;;1.77;;
46230;SDS011;31949;51.404;-0.038;2023-03-14T15:11:47;2.95;;;0.98;;
46230;SDS011;31949;51.404;-0.038;2023-03-14T15:14:14;2.95;;;1.10;;
46230;SDS011;31949;51.404;-0.038;2023-03-14T15:16:42;5.85;;;0.80;;
46230;SDS011;31949;51.404;-0.038;2023-03-14T15:19:10;4.72;;;1.10;;
46230;SDS011;31949;51.404;-0.038;2023-03-14T15:21:53;3.67;;;1.08;;
46230;SDS011;31949;51.404;-0.038;2023-03-14T15:24:21;5.63;;;1.05;;
46230;SDS011;31949;51.404;-0.038;2023-03-14T15:26:49;3.97;;;1.10;;
46230;SDS011;31949;51.404;-0.038;2023-03-14T15:29:17;5.65;;;0.95;;
46230;SDS011;31949;51.404;-0.038;2023-03-14T15:31:44;3.90;;;1.15;;
46230;SDS011;31949;51.404;-0.038;2023-03-14T15:34:12;4.85;;;1.00;;
46230;SDS011;31949;51.404;-0.038;2023-03-14T15:36:39;4.63;;;1.15;;
46230;SDS011;31949;51.404;-0.038;2023-03-14T15:39:06;3.10;;;1.23;;
46230;SDS011;31949;51.404;-0.038;2023-03-14T15:41:34;5.18;;;1.63;;
46230;SDS011;31949;51.404;-0.038;2023-03-14T15:44:01;2.70;;;1.20;;
46230;SDS011;31949;51.404;-0.038;2023-03-14T15:46:28;5.88;;;1.25;;
46230;SDS011;31949;51.404;-0.038;2023-03-14T15:48:56;4.20;;;1.40;;
46230;SDS011;31949;51.404;-0.038;2023-03-14T15:51:24;8.50;;;2.47;;
46230;SDS011;31949;51.404;-0.038;2023-03-14T15:53:51;3.25;;;1.33;;
46230;SDS011;31949;51.404;-0.038;2023-03-14T15:56:20;3.22;;;1.02;;
46230;SDS011;31949;51.404;-0.038;2023-03-14T15:58:51;4.47;;;1.30;;
46230;SDS011;31949;51.404;-0.038;2023-03-14T16:01:18;1.70;;;0.85;;
46230;SDS011;31949;51.404;-0.038;2023-03-14T16:03:46;3.72;;;1.52;;
46230;SDS011;31949;51.404;-0.038;2023-03-14T16:06:15;3.08;;;0.95;;
46230;SDS011;31949;51.404;-0.038;2023-03-14T16:08:42;3.42;;;1.13;;
46230;SDS011;31949;51.404;-0.038;2023-03-14T16:11:10;6.28;;;1.10;;
46230;SDS011;31949;51.404;-0.038;2023-03-14T16:13:40;3.65;;;1.00;;
46230;SDS011;31949;51.404;-0.038;2023-03-14T16:16:08;1.70;;;0.88;;
46230;SDS011;31949;51.404;-0.038;2023-03-14T16:18:37;2.38;;;0.70;;
46230;SDS011;31949;51.404;-0.038;2023-03-14T16:21:06;2.33;;;0.77;;
46230;SDS011;31949;51.404;-0.038;2023-03-14T16:23:44;1.48;;;0.70;;
46230;SDS011;31949;51.404;-0.038;2023-03-14T16:26:13;3.55;;;1.00;;
46230;SDS011;31949;51.404;-0.038;2023-03-14T16:28:42;2.03;;;0.70;;